sensor_id;sensor_type;location;lat;lon;timestamp;temperature;humidity
42333;DHT22;27984;51.476;5.702;2022-10-12T00:02:14;6.50;99.90
42333;DHT22;27984;51.476;5.702;2022-10-12T00:04:40;6.50;99.90
42333;DHT22;27984;51.476;5.702;2022-10-12T00:07:08;6.50;99.90
42333;DHT22;27984;51.476;5.702;2022-10-12T00:09:36;6.50;99.90
42333;DHT22;27984;51.476;5.702;2022-10-12T00:12:02;6.50;99.90
42333;DHT22;27984;51.476;5.702;2022-10-12T00:14:28;6.40;99.90
42333;DHT22;27984;51.476;5.702;2022-10-12T00:16:55;6.50;99.90
42333;DHT22;27984;51.476;5.702;2022-10-12T00:19:21;6.50;99.90
42333;DHT22;27984;51.476;5.702;2022-10-12T00:21:47;6.50;99.90
42333;DHT22;27984;51.476;5.702;2022-10-12T00:24:12;6.60;99.90
42333;DHT22;27984;51.476;5.702;2022-10-12T00:26:38;6.60;99.90
42333;DHT22;27984;51.476;5.702;2022-10-12T00:29:04;6.60;99.90
42333;DHT22;27984;51.476;5.702;2022-10-12T00:31:30;6.60;99.90
42333;DHT22;27984;51.476;5.702;2022-10-12T00:33:59;6.60;99.90
42333;DHT22;27984;51.476;5.702;2022-10-12T00:36:27;6.60;99.90
42333;DHT22;27984;51.476;5.702;2022-10-12T00:38:54;6.60;99.90
42333;DHT22;27984;51.476;5.702;2022-10-12T00:41:36;6.50;99.90
42333;DHT22;27984;51.476;5.702;2022-10-12T00:44:02;6.50;99.90
42333;DHT22;27984;51.476;5.702;2022-10-12T00:46:40;6.50;99.90
42333;DHT22;27984;51.476;5.702;2022-10-12T00:49:24;6.50;99.90
42333;DHT22;27984;51.476;5.702;2022-10-12T00:51:54;6.50;99.90
42333;DHT22;27984;51.476;5.702;2022-10-12T00:54:26;6.50;99.90
42333;DHT22;27984;51.476;5.702;2022-10-12T00:56:56;6.50;99.90
42333;DHT22;27984;51.476;5.702;2022-10-12T00:59:26;6.50;99.90
42333;DHT22;27984;51.476;5.702;2022-10-12T01:01:55;6.40;99.90
42333;DHT22;27984;51.476;5.702;2022-10-12T01:04:21;6.40;99.90
42333;DHT22;27984;51.476;5.702;2022-10-12T01:06:47;6.30;99.90
42333;DHT22;27984;51.476;5.702;2022-10-12T01:09:13;6.30;99.90
42333;DHT22;27984;51.476;5.702;2022-10-12T01:11:41;6.30;99.90
42333;DHT22;27984;51.476;5.702;2022-10-12T01:14:07;6.30;99.90
42333;DHT22;27984;51.476;5.702;2022-10-12T01:20:21;6.20;99.90
42333;DHT22;27984;51.476;5.702;2022-10-12T01:22:18;6.30;99.90
42333;DHT22;27984;51.476;5.702;2022-10-12T01:30:32;6.40;99.90
42333;DHT22;27984;51.476;5.702;2022-10-12T01:36:13;6.40;99.90
42333;DHT22;27984;51.476;5.702;2022-10-12T01:39:03;6.40;99.90
42333;DHT22;27984;51.476;5.702;2022-10-12T01:41:38;6.40;99.90
42333;DHT22;27984;51.476;5.702;2022-10-12T01:44:05;6.40;99.90
42333;DHT22;27984;51.476;5.702;2022-10-12T01:46:40;6.40;99.90
42333;DHT22;27984;51.476;5.702;2022-10-12T01:49:05;6.40;99.90
42333;DHT22;27984;51.476;5.702;2022-10-12T01:56:55;6.50;99.90
42333;DHT22;27984;51.476;5.702;2022-10-12T01:59:35;6.50;99.90
42333;DHT22;27984;51.476;5.702;2022-10-12T02:07:15;6.60;99.90
42333;DHT22;27984;51.476;5.702;2022-10-12T02:09:41;6.50;99.90
42333;DHT22;27984;51.476;5.702;2022-10-12T02:12:12;6.60;99.90
42333;DHT22;27984;51.476;5.702;2022-10-12T02:14:47;6.50;99.90
42333;DHT22;27984;51.476;5.702;2022-10-12T02:17:20;6.60;99.90
42333;DHT22;27984;51.476;5.702;2022-10-12T02:19:58;6.60;99.90
42333;DHT22;27984;51.476;5.702;2022-10-12T02:22:30;6.40;99.90
42333;DHT22;27984;51.476;5.702;2022-10-12T02:24:59;6.30;99.90
42333;DHT22;27984;51.476;5.702;2022-10-12T02:27:28;6.20;99.90
42333;DHT22;27984;51.476;5.702;2022-10-12T02:29:54;6.10;99.90
42333;DHT22;27984;51.476;5.702;2022-10-12T02:35:35;6.00;99.90
42333;DHT22;27984;51.476;5.702;2022-10-12T02:38:13;5.90;99.90
42333;DHT22;27984;51.476;5.702;2022-10-12T02:41:02;5.80;99.90
42333;DHT22;27984;51.476;5.702;2022-10-12T02:43:38;5.80;99.90
42333;DHT22;27984;51.476;5.702;2022-10-12T02:46:08;5.80;99.90
42333;DHT22;27984;51.476;5.702;2022-10-12T02:48:38;5.70;99.90
42333;DHT22;27984;51.476;5.702;2022-10-12T02:51:06;5.70;99.90
42333;DHT22;27984;51.476;5.702;2022-10-12T02:53:36;5.70;99.90
42333;DHT22;27984;51.476;5.702;2022-10-12T02:56:04;5.70;99.90
42333;DHT22;27984;51.476;5.702;2022-10-12T02:58:30;5.70;99.90
42333;DHT22;27984;51.476;5.702;2022-10-12T03:00:59;5.60;99.90
42333;DHT22;27984;51.476;5.702;2022-10-12T03:03:24;5.60;99.90
42333;DHT22;27984;51.476;5.702;2022-10-12T03:05:52;5.60;99.90
42333;DHT22;27984;51.476;5.702;2022-10-12T03:08:23;5.60;99.90
42333;DHT22;27984;51.476;5.702;2022-10-12T03:10:52;5.50;99.90
42333;DHT22;27984;51.476;5.702;2022-10-12T03:13:20;5.50;99.90
42333;DHT22;27984;51.476;5.702;2022-10-12T03:15:48;5.60;99.90
42333;DHT22;27984;51.476;5.702;2022-10-12T03:18:16;5.50;99.90
42333;DHT22;27984;51.476;5.702;2022-10-12T03:20:47;5.50;99.90
42333;DHT22;27984;51.476;5.702;2022-10-12T03:23:15;5.40;99.90
42333;DHT22;27984;51.476;5.702;2022-10-12T03:25:43;5.40;99.90
42333;DHT22;27984;51.476;5.702;2022-10-12T03:28:08;5.40;99.90
42333;DHT22;27984;51.476;5.702;2022-10-12T03:30:34;5.40;99.90
42333;DHT22;27984;51.476;5.702;2022-10-12T03:32:59;5.30;99.90
42333;DHT22;27984;51.476;5.702;2022-10-12T03:35:25;5.20;99.90
42333;DHT22;27984;51.476;5.702;2022-10-12T03:37:51;5.20;99.90
42333;DHT22;27984;51.476;5.702;2022-10-12T03:40:16;5.10;99.90
42333;DHT22;27984;51.476;5.702;2022-10-12T03:42:42;5.10;99.90
42333;DHT22;27984;51.476;5.702;2022-10-12T03:45:08;5.00;99.90
42333;DHT22;27984;51.476;5.702;2022-10-12T03:47:37;5.10;99.90
42333;DHT22;27984;51.476;5.702;2022-10-12T03:50:03;5.00;99.90
42333;DHT22;27984;51.476;5.702;2022-10-12T03:52:30;5.00;99.90
42333;DHT22;27984;51.476;5.702;2022-10-12T03:54:56;5.00;99.90
42333;DHT22;27984;51.476;5.702;2022-10-12T03:57:22;5.00;99.90
42333;DHT22;27984;51.476;5.702;2022-10-12T03:59:47;4.90;99.90
42333;DHT22;27984;51.476;5.702;2022-10-12T04:02:16;4.90;99.90
42333;DHT22;27984;51.476;5.702;2022-10-12T04:04:41;4.90;99.90
42333;DHT22;27984;51.476;5.702;2022-10-12T04:07:07;4.90;99.90
42333;DHT22;27984;51.476;5.702;2022-10-12T04:09:36;4.80;99.90
42333;DHT22;27984;51.476;5.702;2022-10-12T04:12:01;4.80;99.90
42333;DHT22;27984;51.476;5.702;2022-10-12T04:14:31;4.70;99.90
42333;DHT22;27984;51.476;5.702;2022-10-12T04:17:00;4.70;99.90
42333;DHT22;27984;51.476;5.702;2022-10-12T04:19:28;4.70;99.90
42333;DHT22;27984;51.476;5.702;2022-10-12T04:21:57;4.70;99.90
42333;DHT22;27984;51.476;5.702;2022-10-12T04:24:25;4.70;99.90
42333;DHT22;27984;51.476;5.702;2022-10-12T04:26:54;4.60;99.90
42333;DHT22;27984;51.476;5.702;2022-10-12T04:29:20;4.60;99.90
42333;DHT22;27984;51.476;5.702;2022-10-12T04:31:46;4.60;99.90
42333;DHT22;27984;51.476;5.702;2022-10-12T04:34:12;4.50;99.90
42333;DHT22;27984;51.476;5.702;2022-10-12T04:36:43;4.50;99.90
42333;DHT22;27984;51.476;5.702;2022-10-12T04:39:11;4.50;99.90
42333;DHT22;27984;51.476;5.702;2022-10-12T04:41:38;4.50;99.90
42333;DHT22;27984;51.476;5.702;2022-10-12T04:44:06;4.50;99.90
42333;DHT22;27984;51.476;5.702;2022-10-12T04:46:32;4.50;99.90
42333;DHT22;27984;51.476;5.702;2022-10-12T04:49:00;4.50;99.90
42333;DHT22;27984;51.476;5.702;2022-10-12T04:51:29;4.40;99.90
42333;DHT22;27984;51.476;5.702;2022-10-12T04:53:55;4.40;99.90
42333;DHT22;27984;51.476;5.702;2022-10-12T04:56:20;4.40;99.90
42333;DHT22;27984;51.476;5.702;2022-10-12T04:58:46;4.30;99.90
42333;DHT22;27984;51.476;5.702;2022-10-12T05:01:14;4.30;99.90
42333;DHT22;27984;51.476;5.702;2022-10-12T05:03:43;4.30;99.90
42333;DHT22;27984;51.476;5.702;2022-10-12T05:06:09;4.30;99.90
42333;DHT22;27984;51.476;5.702;2022-10-12T05:08:37;4.30;99.90
42333;DHT22;27984;51.476;5.702;2022-10-12T05:11:08;4.30;99.90
42333;DHT22;27984;51.476;5.702;2022-10-12T05:13:36;4.30;99.90
42333;DHT22;27984;51.476;5.702;2022-10-12T05:16:05;4.20;99.90
42333;DHT22;27984;51.476;5.702;2022-10-12T05:18:34;4.20;99.90
42333;DHT22;27984;51.476;5.702;2022-10-12T05:20:59;4.30;99.90
42333;DHT22;27984;51.476;5.702;2022-10-12T05:23:27;4.20;99.90
42333;DHT22;27984;51.476;5.702;2022-10-12T05:25:54;4.20;99.90
42333;DHT22;27984;51.476;5.702;2022-10-12T05:28:21;4.20;99.90
42333;DHT22;27984;51.476;5.702;2022-10-12T05:30:51;4.20;99.90
42333;DHT22;27984;51.476;5.702;2022-10-12T05:33:17;4.20;99.90
42333;DHT22;27984;51.476;5.702;2022-10-12T05:35:43;4.20;99.90
42333;DHT22;27984;51.476;5.702;2022-10-12T05:38:09;4.20;99.90
42333;DHT22;27984;51.476;5.702;2022-10-12T05:40:37;4.20;99.90
42333;DHT22;27984;51.476;5.702;2022-10-12T05:43:03;4.10;99.90
42333;DHT22;27984;51.476;5.702;2022-10-12T05:45:36;4.00;99.90
42333;DHT22;27984;51.476;5.702;2022-10-12T05:48:02;4.00;99.90
42333;DHT22;27984;51.476;5.702;2022-10-12T05:50:27;4.00;99.90
42333;DHT22;27984;51.476;5.702;2022-10-12T05:52:53;4.00;99.90
42333;DHT22;27984;51.476;5.702;2022-10-12T05:55:21;4.00;99.90
42333;DHT22;27984;51.476;5.702;2022-10-12T05:57:53;4.00;99.90
42333;DHT22;27984;51.476;5.702;2022-10-12T06:00:19;4.00;99.90
42333;DHT22;27984;51.476;5.702;2022-10-12T06:02:49;4.00;99.90
42333;DHT22;27984;51.476;5.702;2022-10-12T06:05:19;4.00;99.90
42333;DHT22;27984;51.476;5.702;2022-10-12T06:07:44;4.10;99.90
42333;DHT22;27984;51.476;5.702;2022-10-12T06:10:13;4.10;99.90
42333;DHT22;27984;51.476;5.702;2022-10-12T06:12:38;4.10;99.90
42333;DHT22;27984;51.476;5.702;2022-10-12T06:15:05;4.20;99.90
42333;DHT22;27984;51.476;5.702;2022-10-12T06:17:30;4.20;99.90
42333;DHT22;27984;51.476;5.702;2022-10-12T06:19:59;4.30;99.90
42333;DHT22;27984;51.476;5.702;2022-10-12T06:22:24;4.40;99.90
42333;DHT22;27984;51.476;5.702;2022-10-12T06:24:50;4.50;99.90
42333;DHT22;27984;51.476;5.702;2022-10-12T06:27:15;4.60;99.90
42333;DHT22;27984;51.476;5.702;2022-10-12T06:29:44;4.60;99.90
42333;DHT22;27984;51.476;5.702;2022-10-12T06:32:09;4.80;99.90
42333;DHT22;27984;51.476;5.702;2022-10-12T06:34:35;4.80;99.90
42333;DHT22;27984;51.476;5.702;2022-10-12T06:37:00;4.90;99.90
42333;DHT22;27984;51.476;5.702;2022-10-12T06:39:26;5.10;99.90
42333;DHT22;27984;51.476;5.702;2022-10-12T06:41:52;5.20;99.90
42333;DHT22;27984;51.476;5.702;2022-10-12T06:44:18;5.40;99.90
42333;DHT22;27984;51.476;5.702;2022-10-12T06:46:47;5.50;99.90
42333;DHT22;27984;51.476;5.702;2022-10-12T06:49:18;5.60;99.90
42333;DHT22;27984;51.476;5.702;2022-10-12T06:51:43;5.60;99.90
42333;DHT22;27984;51.476;5.702;2022-10-12T06:54:09;5.70;99.90
42333;DHT22;27984;51.476;5.702;2022-10-12T06:56:35;5.70;99.90
42333;DHT22;27984;51.476;5.702;2022-10-12T06:59:02;5.80;99.90
42333;DHT22;27984;51.476;5.702;2022-10-12T07:01:28;5.90;99.90
42333;DHT22;27984;51.476;5.702;2022-10-12T07:03:55;6.10;99.90
42333;DHT22;27984;51.476;5.702;2022-10-12T07:06:24;6.10;99.90
42333;DHT22;27984;51.476;5.702;2022-10-12T07:08:53;6.30;99.90
42333;DHT22;27984;51.476;5.702;2022-10-12T07:11:21;6.50;99.90
42333;DHT22;27984;51.476;5.702;2022-10-12T07:13:47;6.70;99.90
42333;DHT22;27984;51.476;5.702;2022-10-12T07:16:17;6.80;99.90
42333;DHT22;27984;51.476;5.702;2022-10-12T07:18:46;7.10;99.90
42333;DHT22;27984;51.476;5.702;2022-10-12T07:21:12;7.30;99.90
42333;DHT22;27984;51.476;5.702;2022-10-12T07:23:40;7.50;99.90
42333;DHT22;27984;51.476;5.702;2022-10-12T07:26:06;7.50;99.90
42333;DHT22;27984;51.476;5.702;2022-10-12T07:28:33;7.70;99.90
42333;DHT22;27984;51.476;5.702;2022-10-12T07:31:04;8.00;99.90
42333;DHT22;27984;51.476;5.702;2022-10-12T07:33:34;8.40;99.90
42333;DHT22;27984;51.476;5.702;2022-10-12T07:36:00;8.70;99.90
42333;DHT22;27984;51.476;5.702;2022-10-12T07:38:26;9.10;99.90
42333;DHT22;27984;51.476;5.702;2022-10-12T07:40:52;9.30;99.90
42333;DHT22;27984;51.476;5.702;2022-10-12T07:43:18;9.50;99.90
42333;DHT22;27984;51.476;5.702;2022-10-12T07:45:43;9.50;99.90
42333;DHT22;27984;51.476;5.702;2022-10-12T07:48:09;9.40;99.90
42333;DHT22;27984;51.476;5.702;2022-10-12T07:50:35;9.20;99.90
42333;DHT22;27984;51.476;5.702;2022-10-12T07:53:01;8.80;99.90
42333;DHT22;27984;51.476;5.702;2022-10-12T07:55:27;8.70;99.90
42333;DHT22;27984;51.476;5.702;2022-10-12T07:57:54;8.90;99.90
42333;DHT22;27984;51.476;5.702;2022-10-12T08:00:22;9.20;99.90
42333;DHT22;27984;51.476;5.702;2022-10-12T08:02:47;9.20;99.90
42333;DHT22;27984;51.476;5.702;2022-10-12T08:05:13;8.90;99.90
42333;DHT22;27984;51.476;5.702;2022-10-12T08:07:39;8.60;99.90
42333;DHT22;27984;51.476;5.702;2022-10-12T08:10:05;8.40;99.90
42333;DHT22;27984;51.476;5.702;2022-10-12T08:12:30;8.50;99.90
42333;DHT22;27984;51.476;5.702;2022-10-12T08:14:56;8.80;99.90
42333;DHT22;27984;51.476;5.702;2022-10-12T08:17:22;9.70;99.90
42333;DHT22;27984;51.476;5.702;2022-10-12T08:19:47;10.60;99.90
42333;DHT22;27984;51.476;5.702;2022-10-12T08:22:13;11.30;99.90
42333;DHT22;27984;51.476;5.702;2022-10-12T08:24:38;11.80;99.90
42333;DHT22;27984;51.476;5.702;2022-10-12T08:27:04;12.10;99.90
42333;DHT22;27984;51.476;5.702;2022-10-12T08:29:30;11.90;99.90
42333;DHT22;27984;51.476;5.702;2022-10-12T08:31:55;12.20;99.90
42333;DHT22;27984;51.476;5.702;2022-10-12T08:34:21;12.50;99.90
42333;DHT22;27984;51.476;5.702;2022-10-12T08:36:49;12.90;99.90
42333;DHT22;27984;51.476;5.702;2022-10-12T08:39:16;13.40;99.90
42333;DHT22;27984;51.476;5.702;2022-10-12T08:49:54;12.40;99.90
42333;DHT22;27984;51.476;5.702;2022-10-12T08:52:36;13.30;99.90
42333;DHT22;27984;51.476;5.702;2022-10-12T08:55:40;12.70;99.90
42333;DHT22;27984;51.476;5.702;2022-10-12T08:58:01;12.30;99.90
42333;DHT22;27984;51.476;5.702;2022-10-12T09:00:28;12.20;99.90
42333;DHT22;27984;51.476;5.702;2022-10-12T09:06:04;13.30;99.90
42333;DHT22;27984;51.476;5.702;2022-10-12T09:16:46;18.70;97.20
42333;DHT22;27984;51.476;5.702;2022-10-12T09:19:28;19.20;97.90
42333;DHT22;27984;51.476;5.702;2022-10-12T09:21:57;19.50;95.90
42333;DHT22;27984;51.476;5.702;2022-10-12T09:24:26;19.30;95.80
42333;DHT22;27984;51.476;5.702;2022-10-12T09:26:57;19.80;95.70
42333;DHT22;27984;51.476;5.702;2022-10-12T09:29:30;20.40;95.20
42333;DHT22;27984;51.476;5.702;2022-10-12T09:34:59;21.40;93.80
42333;DHT22;27984;51.476;5.702;2022-10-12T09:37:29;21.90;92.40
42333;DHT22;27984;51.476;5.702;2022-10-12T09:39:56;20.70;92.70
42333;DHT22;27984;51.476;5.702;2022-10-12T09:42:21;19.10;93.60
42333;DHT22;27984;51.476;5.702;2022-10-12T09:45:01;18.30;95.70
42333;DHT22;27984;51.476;5.702;2022-10-12T09:47:29;18.10;98.00
42333;DHT22;27984;51.476;5.702;2022-10-12T09:50:06;18.40;98.20
42333;DHT22;27984;51.476;5.702;2022-10-12T09:55:06;19.80;95.60
42333;DHT22;27984;51.476;5.702;2022-10-12T09:57:35;20.70;93.50
42333;DHT22;27984;51.476;5.702;2022-10-12T10:02:49;21.70;91.80
42333;DHT22;27984;51.476;5.702;2022-10-12T10:07:51;22.20;90.50
42333;DHT22;27984;51.476;5.702;2022-10-12T10:10:18;21.90;90.70
42333;DHT22;27984;51.476;5.702;2022-10-12T10:12:57;21.60;91.70
42333;DHT22;27984;51.476;5.702;2022-10-12T10:15:28;21.30;92.10
42333;DHT22;27984;51.476;5.702;2022-10-12T10:17:59;21.70;92.50
42333;DHT22;27984;51.476;5.702;2022-10-12T10:20:30;21.90;92.10
42333;DHT22;27984;51.476;5.702;2022-10-12T10:23:02;22.00;91.30
42333;DHT22;27984;51.476;5.702;2022-10-12T10:25:31;22.30;91.30
42333;DHT22;27984;51.476;5.702;2022-10-12T10:30:35;22.80;90.10
42333;DHT22;27984;51.476;5.702;2022-10-12T10:33:17;23.40;90.00
42333;DHT22;27984;51.476;5.702;2022-10-12T10:38:58;23.10;90.00
42333;DHT22;27984;51.476;5.702;2022-10-12T10:43:55;24.30;89.70
42333;DHT22;27984;51.476;5.702;2022-10-12T10:46:27;24.20;87.50
42333;DHT22;27984;51.476;5.702;2022-10-12T10:48:58;23.90;90.00
42333;DHT22;27984;51.476;5.702;2022-10-12T10:51:58;23.70;86.00
42333;DHT22;27984;51.476;5.702;2022-10-12T10:54:35;23.80;87.10
42333;DHT22;27984;51.476;5.702;2022-10-12T10:57:15;24.20;88.40
42333;DHT22;27984;51.476;5.702;2022-10-12T11:00:01;24.20;88.50
42333;DHT22;27984;51.476;5.702;2022-10-12T11:02:39;24.10;85.10
42333;DHT22;27984;51.476;5.702;2022-10-12T11:05:19;24.00;86.00
42333;DHT22;27984;51.476;5.702;2022-10-12T11:08:34;24.20;85.50
42333;DHT22;27984;51.476;5.702;2022-10-12T11:10:41;24.70;86.80
42333;DHT22;27984;51.476;5.702;2022-10-12T11:15:47;24.70;86.70
42333;DHT22;27984;51.476;5.702;2022-10-12T11:18:23;24.30;85.50
42333;DHT22;27984;51.476;5.702;2022-10-12T11:20:55;23.90;85.20
42333;DHT22;27984;51.476;5.702;2022-10-12T11:23:47;23.80;84.50
42333;DHT22;27984;51.476;5.702;2022-10-12T11:28:44;23.10;86.60
42333;DHT22;27984;51.476;5.702;2022-10-12T11:31:18;23.60;85.10
42333;DHT22;27984;51.476;5.702;2022-10-12T11:33:47;24.60;85.90
42333;DHT22;27984;51.476;5.702;2022-10-12T11:36:17;25.20;82.00
42333;DHT22;27984;51.476;5.702;2022-10-12T11:39:05;25.10;82.80
42333;DHT22;27984;51.476;5.702;2022-10-12T11:41:42;24.40;82.50
42333;DHT22;27984;51.476;5.702;2022-10-12T11:44:20;22.80;79.40
42333;DHT22;27984;51.476;5.702;2022-10-12T11:46:59;22.30;84.30
42333;DHT22;27984;51.476;5.702;2022-10-12T11:49:55;22.80;83.90
42333;DHT22;27984;51.476;5.702;2022-10-12T11:52:24;23.40;83.60
42333;DHT22;27984;51.476;5.702;2022-10-12T11:57:53;24.60;81.10
42333;DHT22;27984;51.476;5.702;2022-10-12T12:00:23;25.00;79.90
42333;DHT22;27984;51.476;5.702;2022-10-12T12:02:56;23.80;81.20
42333;DHT22;27984;51.476;5.702;2022-10-12T12:05:30;23.60;80.30
42333;DHT22;27984;51.476;5.702;2022-10-12T12:07:56;22.70;80.70
42333;DHT22;27984;51.476;5.702;2022-10-12T12:18:28;20.10;87.90
42333;DHT22;27984;51.476;5.702;2022-10-12T12:28:40;19.80;88.90
42333;DHT22;27984;51.476;5.702;2022-10-12T12:31:15;19.80;87.90
42333;DHT22;27984;51.476;5.702;2022-10-12T12:33:42;20.40;89.30
42333;DHT22;27984;51.476;5.702;2022-10-12T12:38:56;20.80;85.90
42333;DHT22;27984;51.476;5.702;2022-10-12T12:41:27;21.00;87.20
42333;DHT22;27984;51.476;5.702;2022-10-12T12:52:10;20.40;86.60
42333;DHT22;27984;51.476;5.702;2022-10-12T12:54:47;20.00;88.30
42333;DHT22;27984;51.476;5.702;2022-10-12T13:00:23;19.10;88.50
42333;DHT22;27984;51.476;5.702;2022-10-12T13:03:13;19.00;90.40
42333;DHT22;27984;51.476;5.702;2022-10-12T13:14:04;19.20;90.90
42333;DHT22;27984;51.476;5.702;2022-10-12T13:19:33;19.30;91.30
42333;DHT22;27984;51.476;5.702;2022-10-12T13:22:04;19.40;90.20
42333;DHT22;27984;51.476;5.702;2022-10-12T13:24:44;19.20;91.60
42333;DHT22;27984;51.476;5.702;2022-10-12T13:27:31;19.10;91.40
42333;DHT22;27984;51.476;5.702;2022-10-12T13:30:53;19.30;91.70
42333;DHT22;27984;51.476;5.702;2022-10-12T13:33:19;19.60;91.10
42333;DHT22;27984;51.476;5.702;2022-10-12T13:36:00;19.80;90.70
42333;DHT22;27984;51.476;5.702;2022-10-12T13:38:29;19.80;90.90
42333;DHT22;27984;51.476;5.702;2022-10-12T13:43:43;19.30;91.50
42333;DHT22;27984;51.476;5.702;2022-10-12T13:48:58;19.30;91.30
42333;DHT22;27984;51.476;5.702;2022-10-12T13:51:28;19.90;90.60
42333;DHT22;27984;51.476;5.702;2022-10-12T13:53:54;20.90;90.50
42333;DHT22;27984;51.476;5.702;2022-10-12T13:56:22;21.00;90.10
42333;DHT22;27984;51.476;5.702;2022-10-12T13:58:57;21.10;89.70
42333;DHT22;27984;51.476;5.702;2022-10-12T14:01:24;20.90;89.20
42333;DHT22;27984;51.476;5.702;2022-10-12T14:03:50;20.40;87.90
42333;DHT22;27984;51.476;5.702;2022-10-12T14:06:33;19.60;90.20
42333;DHT22;27984;51.476;5.702;2022-10-12T14:09:13;19.20;90.80
42333;DHT22;27984;51.476;5.702;2022-10-12T14:11:40;18.50;91.00
42333;DHT22;27984;51.476;5.702;2022-10-12T14:16:50;17.70;92.00
42333;DHT22;27984;51.476;5.702;2022-10-12T14:19:30;17.40;92.20
42333;DHT22;27984;51.476;5.702;2022-10-12T14:21:57;17.30;93.30
42333;DHT22;27984;51.476;5.702;2022-10-12T14:24:24;17.40;93.00
42333;DHT22;27984;51.476;5.702;2022-10-12T14:27:21;17.50;93.50
42333;DHT22;27984;51.476;5.702;2022-10-12T14:29:47;17.30;92.70
42333;DHT22;27984;51.476;5.702;2022-10-12T14:34:49;17.30;93.00
42333;DHT22;27984;51.476;5.702;2022-10-12T14:37:22;17.40;94.30
42333;DHT22;27984;51.476;5.702;2022-10-12T14:39:49;17.50;93.90
42333;DHT22;27984;51.476;5.702;2022-10-12T14:42:34;17.40;94.10
42333;DHT22;27984;51.476;5.702;2022-10-12T14:45:03;17.40;95.00
42333;DHT22;27984;51.476;5.702;2022-10-12T14:50:00;17.60;94.60
42333;DHT22;27984;51.476;5.702;2022-10-12T14:52:42;17.40;94.00
42333;DHT22;27984;51.476;5.702;2022-10-12T14:57:44;17.10;94.60
42333;DHT22;27984;51.476;5.702;2022-10-12T15:00:17;17.00;94.80
42333;DHT22;27984;51.476;5.702;2022-10-12T15:02:44;16.90;95.00
42333;DHT22;27984;51.476;5.702;2022-10-12T15:05:14;17.00;95.60
42333;DHT22;27984;51.476;5.702;2022-10-12T15:07:40;16.80;95.40
42333;DHT22;27984;51.476;5.702;2022-10-12T15:10:09;16.80;94.80
42333;DHT22;27984;51.476;5.702;2022-10-12T15:12:35;16.70;95.20
42333;DHT22;27984;51.476;5.702;2022-10-12T15:17:41;16.70;96.10
42333;DHT22;27984;51.476;5.702;2022-10-12T15:20:08;16.60;95.60
42333;DHT22;27984;51.476;5.702;2022-10-12T15:22:33;16.60;95.70
42333;DHT22;27984;51.476;5.702;2022-10-12T15:24:59;16.50;95.90
42333;DHT22;27984;51.476;5.702;2022-10-12T15:27:24;16.50;97.20
42333;DHT22;27984;51.476;5.702;2022-10-12T15:29:50;16.40;97.20
42333;DHT22;27984;51.476;5.702;2022-10-12T15:32:17;16.40;97.40
42333;DHT22;27984;51.476;5.702;2022-10-12T15:34:43;16.30;97.20
42333;DHT22;27984;51.476;5.702;2022-10-12T15:37:11;16.30;97.10
42333;DHT22;27984;51.476;5.702;2022-10-12T15:39:37;16.20;97.50
42333;DHT22;27984;51.476;5.702;2022-10-12T15:42:02;16.20;97.50
42333;DHT22;27984;51.476;5.702;2022-10-12T15:44:38;16.30;98.10
42333;DHT22;27984;51.476;5.702;2022-10-12T15:47:08;16.20;98.40
42333;DHT22;27984;51.476;5.702;2022-10-12T15:49:34;16.00;99.50
42333;DHT22;27984;51.476;5.702;2022-10-12T15:51:59;16.00;99.60
42333;DHT22;27984;51.476;5.702;2022-10-12T15:54:25;15.90;99.90
42333;DHT22;27984;51.476;5.702;2022-10-12T15:56:51;16.00;99.90
42333;DHT22;27984;51.476;5.702;2022-10-12T15:59:16;15.90;99.90
42333;DHT22;27984;51.476;5.702;2022-10-12T16:01:42;15.90;99.90
42333;DHT22;27984;51.476;5.702;2022-10-12T16:04:12;15.90;99.90
42333;DHT22;27984;51.476;5.702;2022-10-12T16:06:44;15.90;99.90
42333;DHT22;27984;51.476;5.702;2022-10-12T16:09:09;15.80;99.90
42333;DHT22;27984;51.476;5.702;2022-10-12T16:11:35;15.80;99.90
42333;DHT22;27984;51.476;5.702;2022-10-12T16:14:01;15.70;99.90
42333;DHT22;27984;51.476;5.702;2022-10-12T16:16:26;15.70;99.90
42333;DHT22;27984;51.476;5.702;2022-10-12T16:18:54;15.70;99.90
42333;DHT22;27984;51.476;5.702;2022-10-12T16:21:20;15.60;99.90
42333;DHT22;27984;51.476;5.702;2022-10-12T16:23:45;15.50;99.90
42333;DHT22;27984;51.476;5.702;2022-10-12T16:26:12;15.30;99.90
42333;DHT22;27984;51.476;5.702;2022-10-12T16:28:39;15.30;99.90
42333;DHT22;27984;51.476;5.702;2022-10-12T16:31:09;15.20;99.90
42333;DHT22;27984;51.476;5.702;2022-10-12T16:33:38;15.20;99.90
42333;DHT22;27984;51.476;5.702;2022-10-12T16:36:13;15.20;99.90
42333;DHT22;27984;51.476;5.702;2022-10-12T16:38:40;15.00;99.90
42333;DHT22;27984;51.476;5.702;2022-10-12T16:41:14;14.90;99.90
42333;DHT22;27984;51.476;5.702;2022-10-12T16:43:42;14.80;99.90
42333;DHT22;27984;51.476;5.702;2022-10-12T16:46:07;14.60;99.90
42333;DHT22;27984;51.476;5.702;2022-10-12T16:48:34;14.40;99.90
42333;DHT22;27984;51.476;5.702;2022-10-12T16:50:59;14.30;99.90
42333;DHT22;27984;51.476;5.702;2022-10-12T16:53:25;14.20;99.90
42333;DHT22;27984;51.476;5.702;2022-10-12T16:55:58;14.00;99.90
42333;DHT22;27984;51.476;5.702;2022-10-12T16:58:24;14.00;99.90
42333;DHT22;27984;51.476;5.702;2022-10-12T17:00:50;13.90;99.90
42333;DHT22;27984;51.476;5.702;2022-10-12T17:03:15;13.80;99.90
42333;DHT22;27984;51.476;5.702;2022-10-12T17:05:41;13.80;99.90
42333;DHT22;27984;51.476;5.702;2022-10-12T17:08:08;13.70;99.90
42333;DHT22;27984;51.476;5.702;2022-10-12T17:10:39;13.70;99.90
42333;DHT22;27984;51.476;5.702;2022-10-12T17:13:05;13.60;99.90
42333;DHT22;27984;51.476;5.702;2022-10-12T17:15:31;13.50;99.90
42333;DHT22;27984;51.476;5.702;2022-10-12T17:17:57;13.50;99.90
42333;DHT22;27984;51.476;5.702;2022-10-12T17:20:24;13.50;99.90
42333;DHT22;27984;51.476;5.702;2022-10-12T17:22:50;13.30;99.90
42333;DHT22;27984;51.476;5.702;2022-10-12T17:25:16;13.20;99.90
42333;DHT22;27984;51.476;5.702;2022-10-12T17:27:44;13.10;99.90
42333;DHT22;27984;51.476;5.702;2022-10-12T17:30:12;12.90;99.90
42333;DHT22;27984;51.476;5.702;2022-10-12T17:32:37;12.80;99.90
42333;DHT22;27984;51.476;5.702;2022-10-12T17:35:06;12.80;99.90
42333;DHT22;27984;51.476;5.702;2022-10-12T17:37:34;12.70;99.90
42333;DHT22;27984;51.476;5.702;2022-10-12T17:40:00;12.60;99.90
42333;DHT22;27984;51.476;5.702;2022-10-12T17:42:28;12.40;99.90
42333;DHT22;27984;51.476;5.702;2022-10-12T17:44:53;12.30;99.90
42333;DHT22;27984;51.476;5.702;2022-10-12T17:47:19;12.30;99.90
42333;DHT22;27984;51.476;5.702;2022-10-12T17:49:44;12.20;99.90
42333;DHT22;27984;51.476;5.702;2022-10-12T17:52:15;12.10;99.90
42333;DHT22;27984;51.476;5.702;2022-10-12T17:54:41;12.10;99.90
42333;DHT22;27984;51.476;5.702;2022-10-12T17:57:09;12.10;99.90
42333;DHT22;27984;51.476;5.702;2022-10-12T17:59:35;12.00;99.90
42333;DHT22;27984;51.476;5.702;2022-10-12T18:02:00;11.90;99.90
42333;DHT22;27984;51.476;5.702;2022-10-12T18:04:26;11.80;99.90